Celebrity Equinox — 9HXD9 — position and weather

sailwx.info

Track history (hours):
 
Tides and Currents Weather Stations Pressure Air Temp Water Temp Dewpoint Dewpoint Depression Visibility Wind Speed Wind Dir Waves Ship Positions

Celebrity Equinox

Last reported at 2015-May-23 02:22 UTC. Time now 2015-May-23 11:58 UTC.
Position N 37°49' E 015°58'.

Length 317 m; draft 9 m.

Type: Ship. MMSI: 249667000.

Date/timePositionNaut miles runAvg speedWind from/ knotsBaromVisibWave heightAir tempDewpointWater temp
2015-May-23 02:22N 37°49' E 015°58'1721.1
2015-May-23 01:33N 37°55' E 015°38'1919.2
2015-May-23 00:33N 38°15' E 015°38'1615.9
2015-May-22 23:33N 38°30' E 015°34'2321.8
2015-May-22 22:31N 38°51' E 015°22'110 5.8
2015-May-22 03:25N 40°34' E 014°33'1213.5
2015-May-22 02:31N 40°31' E 014°18'1313.6
2015-May-22 01:34N 40°35' E 014°02'1413.8
2015-May-22 00:33N 40°41' E 013°45'1414.0
2015-May-21 23:33N 40°50' E 013°31'1413.9
2015-May-21 22:31N 40°58' E 013°15'10 0.4
2015-May-20 20:21N 40°54' E 013°27'1721.1
2015-May-20 19:33N 40°43' E 013°44'2121.2
2015-May-20 18:33N 40°32' E 014°08'2620.1
2015-May-20 17:16N 40°38' E 014°42'3 0.2
2015-May-20 03:31N 40°35' E 014°43'9 9.8
2015-May-20 02:33N 40°26' E 014°44'5210.3
2015-May-19 21:31N 39°36' E 015°02'5114.4
2015-May-19 18:00N 38°48' E 015°24'1214.2 140 / 31002.010.8 1.0 20.0
2015-May-19 17:10N 38°38' E 015°32'1518.4
2015-May-19 16:21N 38°24' E 015°39'138662.0
2015-May-18 18:00N 38°18' W 013°48'1291883.4 270 / 91012.027.0 1.5 20.0
2015-May-18 16:32N 38°23' E 013°37'9 8.8
2015-May-18 15:34N 38°25' E 013°27'9 8.8
2015-May-18 14:34N 38°26' E 013°16'9 8.6
2015-May-18 13:34N 38°26' E 013°05'9 8.6
2015-May-18 12:34N 38°27' E 012°54'9 8.6
2015-May-18 11:33N 38°28' E 012°43'150 8.8
2015-May-17 18:33N 38°57' E 009°34'8851593.5
2015-May-17 18:00N 38°54' W 009°24'8771985.8 030 / 251012.027.0 1.5 19.0
2015-May-17 17:33N 38°59' E 009°23'9 8.6
2015-May-17 16:34N 39°04' E 009°13'8 8.3
2015-May-17 15:33N 39°10' E 009°06'3 2.8
2015-May-17 14:32N 39°13' E 009°06'0 0.0
2015-May-17 13:32N 39°13' E 009°06'0 0.0
2015-May-17 12:31N 39°13' E 009°06'0 0.0
2015-May-17 11:31N 39°13' E 009°06'0 0.0
2015-May-17 10:33N 39°13' E 009°06'0 0.0
2015-May-17 09:33N 39°13' E 009°06'0 0.0
2015-May-17 08:29N 39°13' E 009°06'0 0.0
2015-May-17 07:32N 39°13' E 009°06'0 0.0
2015-May-17 06:32N 39°13' E 009°06'0 0.3
2015-May-17 05:34N 39°12' E 009°07'7 7.3
2015-May-17 04:33N 39°06' E 009°11'1716.8
2015-May-17 03:33N 39°00' E 009°32'254 8.3
2015-May-15 21:05N 43°14' E 009°13'814.9
2015-May-15 20:31N 43°18' E 009°23'1515.3
2015-May-15 19:34N 43°26' E 009°39'1414.5
2015-May-15 18:34N 43°31' E 009°59'8691533.3
2015-May-15 18:00N 43°30' W 010°00'8822025.6 250 / 181009.010.8 2.5 21.0
2015-May-15 17:33N 43°32' E 010°17'1 1.1
2015-May-15 16:32N 43°33' E 010°18'0 0.0
2015-May-15 15:28N 43°33' E 010°18'0 0.0
2015-May-15 14:31N 43°33' E 010°18'0 0.0
2015-May-15 13:33N 43°33' E 010°18'0 0.0
2015-May-15 12:33N 43°33' E 010°18'0 0.0
2015-May-15 11:33N 43°33' E 010°18'0 0.0
2015-May-15 10:32N 43°33' E 010°18'0 0.0
2015-May-15 09:29N 43°33' E 010°18'0 0.0
2015-May-15 08:31N 43°33' E 010°18'0 0.0
2015-May-15 07:31N 43°33' E 010°18'0 0.0
2015-May-15 06:33N 43°33' E 010°18'0 0.0
2015-May-15 05:33N 43°33' E 010°18'0 0.0
2015-May-15 04:33N 43°33' E 010°18'0 0.0
2015-May-15 03:32N 43°33' E 010°18'0 0.0
2015-May-15 02:32N 43°33' E 010°18'0 0.0
2015-May-15 01:31N 43°33' E 010°18'0 0.0
2015-May-15 00:33N 43°33' E 010°18'7 7.4
2015-May-14 23:34N 43°30' E 010°09'1514.7
2015-May-14 22:33N 43°31' E 009°48'1514.9
2015-May-14 21:33N 43°32' E 009°28'1514.7
2015-May-14 20:33N 43°32' E 009°07'1515.1
2015-May-14 19:34N 43°31' E 008°47'1515.1
2015-May-14 18:33N 43°30' E 008°26'7241299.3
2015-May-14 18:00N 43°30' W 008°12'7071365.5 210 / 131009.010.8 2.0 22.0
2015-May-14 17:28N 43°30' E 008°03'1915.1
2015-May-14 16:11N 43°29' E 007°36'1015.4
2015-May-14 15:31N 43°29' E 007°22'1515.4
2015-May-14 14:33N 43°29' E 007°02'4 0.6
2015-May-14 08:33N 43°32' E 007°00'0 0.0
2015-May-14 05:32N 43°32' E 007°01'0 0.0
2015-May-14 04:32N 43°32' E 007°01'0 0.0
2015-May-14 03:13N 43°32' E 007°01'0 0.0
2015-May-13 21:10N 43°32' E 007°01'0 0.0
2015-May-13 18:33N 43°32' E 007°00'0 0.0
2015-May-13 17:03N 43°32' E 007°00'0 0.0
2015-May-13 15:26N 43°32' E 007°00'0 0.0
2015-May-13 14:26N 43°32' E 007°00'0 0.0
2015-May-13 08:05N 43°32' E 007°00'0 0.0
2015-May-13 07:22N 43°32' E 007°00'0 0.0
2015-May-13 06:28N 43°32' E 007°00'0 0.0
2015-May-13 05:17N 43°32' E 007°01'5 6.4
2015-May-13 04:33N 43°27' E 007°00'11 7.3
2015-May-13 03:06N 43°17' E 006°60'4 7.0
2015-May-13 02:33N 43°13' E 006°60'  
Track history (hours):
 
Tides and Currents Weather Stations Pressure Air Temp Water Temp Dewpoint Dewpoint Depression Visibility Wind Speed Wind Dir Waves Ship Positions

Celebrity Equinox

Last reported at 2015-May-23 02:22 UTC. Time now 2015-May-23 11:58 UTC.
Position N 37°49' E 015°58'.

Length 317 m; draft 9 m.

Type: Ship. MMSI: 249667000.

Date/timePositionNaut miles runAvg speedWind from/ knotsBaromVisibWave heightAir tempDewpointWater temp
2015-May-23 02:22N 37°49' E 015°58'1721.1
2015-May-23 01:33N 37°55' E 015°38'1919.2
2015-May-23 00:33N 38°15' E 015°38'1615.9
2015-May-22 23:33N 38°30' E 015°34'2321.8
2015-May-22 22:31N 38°51' E 015°22'110 5.8
2015-May-22 03:25N 40°34' E 014°33'1213.5
2015-May-22 02:31N 40°31' E 014°18'1313.6
2015-May-22 01:34N 40°35' E 014°02'1413.8
2015-May-22 00:33N 40°41' E 013°45'1414.0
2015-May-21 23:33N 40°50' E 013°31'1413.9
2015-May-21 22:31N 40°58' E 013°15'10 0.4
2015-May-20 20:21N 40°54' E 013°27'1721.1
2015-May-20 19:33N 40°43' E 013°44'2121.2
2015-May-20 18:33N 40°32' E 014°08'2620.1
2015-May-20 17:16N 40°38' E 014°42'3 0.2
2015-May-20 03:31N 40°35' E 014°43'9 9.8
2015-May-20 02:33N 40°26' E 014°44'5210.3
2015-May-19 21:31N 39°36' E 015°02'5114.4
2015-May-19 18:00N 38°48' E 015°24'1214.2 140 / 31002.010.8 1.0 20.0
2015-May-19 17:10N 38°38' E 015°32'1518.4
2015-May-19 16:21N 38°24' E 015°39'138662.0
2015-May-18 18:00N 38°18' W 013°48'1291883.4 270 / 91012.027.0 1.5 20.0
2015-May-18 16:32N 38°23' E 013°37'9 8.8
2015-May-18 15:34N 38°25' E 013°27'9 8.8
2015-May-18 14:34N 38°26' E 013°16'9 8.6
2015-May-18 13:34N 38°26' E 013°05'9 8.6
2015-May-18 12:34N 38°27' E 012°54'9 8.6
2015-May-18 11:33N 38°28' E 012°43'150 8.8
2015-May-17 18:33N 38°57' E 009°34'8851593.5
2015-May-17 18:00N 38°54' W 009°24'8771985.8 030 / 251012.027.0 1.5 19.0
2015-May-17 17:33N 38°59' E 009°23'9 8.6
2015-May-17 16:34N 39°04' E 009°13'8 8.3
2015-May-17 15:33N 39°10' E 009°06'3 2.8
2015-May-17 14:32N 39°13' E 009°06'0 0.0
2015-May-17 13:32N 39°13' E 009°06'0 0.0
2015-May-17 12:31N 39°13' E 009°06'0 0.0
2015-May-17 11:31N 39°13' E 009°06'0 0.0
2015-May-17 10:33N 39°13' E 009°06'0 0.0
2015-May-17 09:33N 39°13' E 009°06'0 0.0
2015-May-17 08:29N 39°13' E 009°06'0 0.0
2015-May-17 07:32N 39°13' E 009°06'0 0.0
2015-May-17 06:32N 39°13' E 009°06'0 0.3
2015-May-17 05:34N 39°12' E 009°07'7 7.3
2015-May-17 04:33N 39°06' E 009°11'1716.8
2015-May-17 03:33N 39°00' E 009°32'254 8.3
2015-May-15 21:05N 43°14' E 009°13'814.9
2015-May-15 20:31N 43°18' E 009°23'1515.3
2015-May-15 19:34N 43°26' E 009°39'1414.5
2015-May-15 18:34N 43°31' E 009°59'8691533.3
2015-May-15 18:00N 43°30' W 010°00'8822025.6 250 / 181009.010.8 2.5 21.0
2015-May-15 17:33N 43°32' E 010°17'1 1.1
2015-May-15 16:32N 43°33' E 010°18'0 0.0
2015-May-15 15:28N 43°33' E 010°18'0 0.0
2015-May-15 14:31N 43°33' E 010°18'0 0.0
2015-May-15 13:33N 43°33' E 010°18'0 0.0
2015-May-15 12:33N 43°33' E 010°18'0 0.0
2015-May-15 11:33N 43°33' E 010°18'0 0.0
2015-May-15 10:32N 43°33' E 010°18'0 0.0
2015-May-15 09:29N 43°33' E 010°18'0 0.0
2015-May-15 08:31N 43°33' E 010°18'0 0.0
2015-May-15 07:31N 43°33' E 010°18'0 0.0
2015-May-15 06:33N 43°33' E 010°18'0 0.0
2015-May-15 05:33N 43°33' E 010°18'0 0.0
2015-May-15 04:33N 43°33' E 010°18'0 0.0
2015-May-15 03:32N 43°33' E 010°18'0 0.0
2015-May-15 02:32N 43°33' E 010°18'0 0.0
2015-May-15 01:31N 43°33' E 010°18'0 0.0
2015-May-15 00:33N 43°33' E 010°18'7 7.4
2015-May-14 23:34N 43°30' E 010°09'1514.7
2015-May-14 22:33N 43°31' E 009°48'1514.9
2015-May-14 21:33N 43°32' E 009°28'1514.7
2015-May-14 20:33N 43°32' E 009°07'1515.1
2015-May-14 19:34N 43°31' E 008°47'1515.1
2015-May-14 18:33N 43°30' E 008°26'7241299.3
2015-May-14 18:00N 43°30' W 008°12'7071365.5 210 / 131009.010.8 2.0 22.0
2015-May-14 17:28N 43°30' E 008°03'1915.1
2015-May-14 16:11N 43°29' E 007°36'1015.4
2015-May-14 15:31N 43°29' E 007°22'1515.4
2015-May-14 14:33N 43°29' E 007°02'4 0.6
2015-May-14 08:33N 43°32' E 007°00'0 0.0
2015-May-14 05:32N 43°32' E 007°01'0 0.0
2015-May-14 04:32N 43°32' E 007°01'0 0.0
2015-May-14 03:13N 43°32' E 007°01'0 0.0
2015-May-13 21:10N 43°32' E 007°01'0 0.0
2015-May-13 18:33N 43°32' E 007°00'0 0.0
2015-May-13 17:03N 43°32' E 007°00'0 0.0
2015-May-13 15:26N 43°32' E 007°00'0 0.0
2015-May-13 14:26N 43°32' E 007°00'0 0.0
2015-May-13 08:05N 43°32' E 007°00'0 0.0
2015-May-13 07:22N 43°32' E 007°00'0 0.0
2015-May-13 06:28N 43°32' E 007°00'0 0.0
2015-May-13 05:17N 43°32' E 007°01'5 6.4
2015-May-13 04:33N 43°27' E 007°00'11 7.3
2015-May-13 03:06N 43°17' E 006°60'4 7.0
2015-May-13 02:33N 43°13' E 006°60'  

Dump ship's entire track history